Time;durP1;ratioP1;P1;durP2;ratioP2;P2;SDS_P1;SDS_P2;PMS_P1;PMS_P2;Temp;Humidity;BMP_temperature;BMP_pressure;BME280_temperature;BME280_humidity;BME280_pressure;Samples;Min_cycle;Max_cycle;Signal;HPM_P1;HPM_P2
2023/10/10 00:00:04;;;;;;;26.95;24.35;;;;;;;14.28;100.00;101945.75;5093808;28;20081;-64
2023/10/10 00:02:31;;;;;;;25.20;22.17;;;;;;;14.42;99.84;101951.13;5084750;28;20071;-65
2023/10/10 00:05:03;;;;;;;26.73;22.88;;;;;;;14.33;100.00;101954.38;5074478;28;20020;-64
2023/10/10 00:07:34;;;;;;;31.85;25.08;;;;;;;14.29;100.00;101955.50;5099667;28;20035;-65
2023/10/10 00:10:05;;;;;;;30.00;24.50;;;;;;;14.44;100.00;101959.03;5092163;28;20027;-64
2023/10/10 00:12:30;;;;;;;26.85;24.15;;;;;;;14.43;100.00;101954.66;5080949;28;20020;-65
2023/10/10 00:14:57;;;;;;;28.42;25.05;;;;;;;14.39;100.00;101951.31;5105444;28;20485;-64
2023/10/10 00:17:22;;;;;;;33.88;24.70;;;;;;;14.40;100.00;101958.38;5094203;28;20442;-64
2023/10/10 00:19:58;;;;;;;28.65;25.48;;;;;;;14.42;100.00;101966.31;5111663;28;20027;-64
2023/10/10 00:22:35;;;;;;;33.88;27.40;;;;;;;14.27;100.00;101958.28;5112104;28;20441;-64
2023/10/10 00:25:04;;;;;;;31.58;26.55;;;;;;;14.28;100.00;101954.63;5085665;28;20118;-64
2023/10/10 00:27:31;;;;;;;29.65;26.38;;;;;;;14.26;100.00;101953.84;5112123;28;20084;-64
2023/10/10 00:30:02;;;;;;;31.85;25.63;;;;;;;14.34;100.00;101953.41;5093688;28;20031;-64
2023/10/10 00:32:29;;;;;;;28.30;25.25;;;;;;;14.30;100.00;101950.06;5111968;28;20054;-65
2023/10/10 00:34:55;;;;;;;28.80;25.90;;;;;;;14.07;100.00;101954.13;5093493;28;20030;-64
2023/10/10 00:37:25;;;;;;;28.77;25.70;;;;;;;14.22;100.00;101964.84;5093641;28;20202;-64
2023/10/10 00:39:54;;;;;;;31.25;27.88;;;;;;;14.23;100.00;101950.50;5108875;28;20102;-64
2023/10/10 00:42:40;;;;;;;29.10;25.90;;;;;;;14.24;100.00;101957.59;5084227;28;20114;-65
2023/10/10 00:45:09;;;;;;;29.85;26.52;;;;;;;14.25;100.00;101952.16;5088040;28;20020;-64
2023/10/10 00:47:42;;;;;;;31.15;26.83;;;;;;;14.15;100.00;101944.75;5091329;28;20026;-64
2023/10/10 00:50:15;;;;;;;32.00;27.67;;;;;;;14.17;100.00;101949.06;5092337;28;20020;-64
2023/10/10 00:52:43;;;;;;;31.60;26.13;;;;;;;14.19;100.00;101947.16;5072486;28;20031;-64
2023/10/10 00:55:12;;;;;;;33.50;27.00;;;;;;;14.15;100.00;101939.41;5081923;28;20047;-64
2023/10/10 00:57:42;;;;;;;29.90;26.73;;;;;;;14.18;100.00;101945.47;5089802;28;20024;-64
2023/10/10 01:00:10;;;;;;;32.70;26.35;;;;;;;14.23;100.00;101942.50;5070078;28;20866;-64
2023/10/10 01:02:38;;;;;;;30.77;27.02;;;;;;;14.09;100.00;101946.03;5071218;28;20394;-65
2023/10/10 01:05:13;;;;;;;28.70;25.70;;;;;;;14.12;100.00;101932.47;5091267;28;20089;-64
2023/10/10 01:07:39;;;;;;;30.77;27.45;;;;;;;14.10;100.00;101923.66;5096888;28;20081;-64
2023/10/10 01:10:12;;;;;;;29.48;25.67;;;;;;;14.07;100.00;101922.03;5072495;28;20066;-65
2023/10/10 01:12:39;;;;;;;29.05;24.80;;;;;;;14.03;100.00;101928.53;5089828;28;20031;-64
2023/10/10 01:15:25;;;;;;;25.05;15.35;;;;;;;14.27;100.00;101926.16;5086297;28;20032;-64
2023/10/10 01:17:54;;;;;;;27.77;24.83;;;;;;;13.90;100.00;101910.63;5104085;28;20744;-64
2023/10/10 01:20:33;;;;;;;30.00;26.77;;;;;;;14.13;100.00;101920.78;5112492;28;20077;-64
2023/10/10 01:22:59;;;;;;;;;;;;;;;14.30;99.66;101915.28;5115494;28;20530;-64
2023/10/10 01:30:57;;;;;;;30.20;27.08;;;;;;;14.05;99.79;101907.88;5095857;28;20070;-64
2023/10/10 01:33:36;;;;;;;29.42;26.38;;;;;;;14.03;100.00;101909.81;5081084;28;20043;-64
2023/10/10 01:36:19;;;;;;;30.33;27.20;;;;;;;13.98;100.00;101894.97;5079072;28;20035;-65
2023/10/10 01:39:08;;;;;;;31.55;28.30;;;;;;;14.00;100.00;101906.41;5106829;28;20030;-64
2023/10/10 01:41:40;;;;;;;30.38;27.25;;;;;;;13.97;99.81;101893.22;5077986;28;20024;-65
2023/10/10 01:44:29;;;;;;;32.97;29.42;;;;;;;13.99;100.00;101897.53;5096789;28;20471;-64
2023/10/10 01:46:54;;;;;;;34.47;30.45;;;;;;;13.91;100.00;101891.78;5113659;28;20035;-64
2023/10/10 01:49:20;;;;;;;30.13;27.00;;;;;;;13.94;100.00;101883.63;5067806;28;20090;-64
2023/10/10 01:51:53;;;;;;;31.05;27.10;;;;;;;13.90;100.00;101884.72;5094182;28;20062;-64
2023/10/10 01:54:19;;;;;;;31.45;28.13;;;;;;;13.84;100.00;101883.28;5095417;28;20386;-64
2023/10/10 01:56:48;;;;;;;32.75;29.17;;;;;;;13.84;100.00;101880.59;5101996;28;20088;-64
2023/10/10 01:59:17;;;;;;;;;;;;;;;14.09;100.00;101874.66;5074373;28;20787;-64
2023/10/10 02:01:42;;;;;;;31.38;28.38;;;;;;;13.86;100.00;101878.72;5092458;28;19923;-65
2023/10/10 02:04:10;;;;;;;33.67;30.08;;;;;;;13.85;100.00;101878.78;5095805;28;20023;-64
2023/10/10 02:06:38;;;;;;;33.28;29.88;;;;;;;13.80;100.00;101851.50;5059077;28;20036;-65
2023/10/10 02:09:19;;;;;;;34.20;30.48;;;;;;;13.85;100.00;101868.97;5076314;28;20020;-64
2023/10/10 02:11:53;;;;;;;36.10;32.28;;;;;;;13.84;100.00;101866.38;5089076;28;20067;-64
2023/10/10 02:14:19;;;;;;;29.95;17.02;;;;;;;14.02;100.00;101870.59;5077643;28;20047;-64
2023/10/10 02:16:50;;;;;;;34.15;30.77;;;;;;;13.85;100.00;101863.63;5078411;28;20078;-64
2023/10/10 02:19:15;;;;;;;34.53;30.92;;;;;;;13.82;100.00;101861.16;5077288;28;20027;-64
2023/10/10 02:21:47;;;;;;;34.00;30.40;;;;;;;13.81;100.00;101854.06;5076151;28;20073;-64
2023/10/10 02:24:38;;;;;;;35.50;31.75;;;;;;;13.75;100.00;101848.22;5095224;28;20496;-64
2023/10/10 02:27:05;;;;;;;33.47;30.00;;;;;;;13.75;100.00;101856.25;5113927;28;20500;-64
2023/10/10 02:34:37;;;;;;;24.80;16.52;;;;;;;13.92;100.00;101842.72;5113201;28;20035;-64
2023/10/10 02:39:56;;;;;;;37.17;33.17;;;;;;;13.72;100.00;101835.91;5096094;28;20403;-64
2023/10/10 02:42:23;;;;;;;35.15;31.73;;;;;;;13.70;100.00;101834.25;5082083;28;20428;-64
2023/10/10 02:44:57;;;;;;;35.17;31.48;;;;;;;13.67;100.00;101837.13;5085123;28;20485;-64
2023/10/10 02:47:30;;;;;;;36.25;32.42;;;;;;;13.62;100.00;101840.09;5110898;28;20047;-64
2023/10/10 02:50:39;;;;;;;29.15;16.60;;;;;;;13.81;100.00;101848.72;5091289;28;20024;-65
2023/10/10 02:53:02;;;;;;;35.60;32.13;;;;;;;13.59;100.00;101825.09;5091346;28;20044;-64
2023/10/10 02:55:33;;;;;;;35.55;31.73;;;;;;;13.62;100.00;101840.09;5090470;28;20052;-64
2023/10/10 02:57:59;;;;;;;38.88;33.38;;;;;;;13.61;100.00;101841.03;5089776;28;20114;-64
2023/10/10 03:02:53;;;;;;;31.55;18.95;;;;;;;13.77;100.00;101835.63;5093459;28;20038;-65
2023/10/10 03:05:38;;;;;;;36.83;32.92;;;;;;;13.49;100.00;101831.94;5102236;28;20019;-64
2023/10/10 03:08:13;;;;;;;42.78;36.58;;;;;;;13.56;100.00;101835.09;5100937;28;20034;-64
2023/10/10 03:10:41;;;;;;;40.97;36.53;;;;;;;13.53;100.00;101830.81;5108404;28;20042;-64
2023/10/10 03:13:27;;;;;;;41.37;36.90;;;;;;;13.51;100.00;101834.53;5074758;28;20032;-65
2023/10/10 03:15:54;;;;;;;39.55;35.45;;;;;;;13.50;100.00;101839.00;5098606;28;20080;-65
2023/10/10 03:18:28;;;;;;;41.90;37.60;;;;;;;13.49;100.00;101842.63;5075945;28;20475;-64
2023/10/10 03:21:12;;;;;;;40.00;35.72;;;;;;;13.49;100.00;101837.28;5091902;28;20024;-64
2023/10/10 03:24:07;;;;;;;42.15;37.65;;;;;;;13.51;100.00;101829.19;5105998;28;20521;-64
2023/10/10 03:26:59;;;;;;;42.55;37.90;;;;;;;13.45;100.00;101840.25;5096181;28;20024;-64
2023/10/10 03:29:36;;;;;;;39.85;35.65;;;;;;;13.48;100.00;101832.03;5090429;28;20494;-64
2023/10/10 03:34:56;;;;;;;42.40;38.03;;;;;;;13.55;100.00;101836.91;5087470;28;20039;-64
2023/10/10 03:37:30;;;;;;;46.58;41.72;;;;;;;13.49;100.00;101831.94;5097978;28;20035;-64
2023/10/10 03:39:58;;;;;;;41.80;37.45;;;;;;;13.45;100.00;101846.44;5090398;28;20416;-64
2023/10/10 05:24:09;;;;;;;40.80;33.90;;;;;;;13.05;100.00;101787.28;5091456;28;20101;-64
2023/10/10 05:26:46;;;;;;;38.15;33.58;;;;;;;13.05;100.00;101789.09;5098478;28;20081;-64
2023/10/10 05:29:13;;;;;;;36.88;32.88;;;;;;;13.00;100.00;101786.72;5085580;28;20036;-64
2023/10/10 05:31:38;;;;;;;39.47;33.67;;;;;;;12.98;100.00;101777.94;5046144;28;20135;-64
2023/10/10 05:34:04;;;;;;;38.05;33.40;;;;;;;12.96;100.00;101778.00;5098574;28;20119;-65
2023/10/10 05:36:29;;;;;;;38.72;31.60;;;;;;;12.94;100.00;101771.03;5091160;28;20016;-65
2023/10/10 05:38:55;;;;;;;36.53;31.30;;;;;;;12.94;100.00;101776.38;5077654;28;20174;-64
2023/10/10 05:41:22;;;;;;;36.88;30.42;;;;;;;12.99;100.00;101774.28;5095807;28;20534;-64
2023/10/10 05:43:51;;;;;;;34.60;29.27;;;;;;;12.91;100.00;101766.75;5091596;28;20535;-65
2023/10/10 05:46:16;;;;;;;36.92;31.20;;;;;;;12.93;100.00;101771.97;5095219;28;20459;-64
2023/10/10 05:48:42;;;;;;;37.13;29.08;;;;;;;12.83;100.00;101776.16;5092772;28;20055;-65
2023/10/10 05:51:10;;;;;;;37.03;29.15;;;;;;;12.90;100.00;101785.50;5094414;28;20032;-64
2023/10/10 05:53:35;;;;;;;36.28;28.88;;;;;;;12.86;100.00;101782.16;5077657;28;20027;-64
2023/10/10 05:56:12;;;;;;;36.83;27.58;;;;;;;12.86;100.00;101781.31;5093100;28;20433;-65
2023/10/10 05:58:44;;;;;;;37.88;29.52;;;;;;;12.77;100.00;101769.34;5088667;28;20031;-65
2023/10/10 06:01:14;;;;;;;24.95;15.10;;;;;;;12.92;100.00;101779.13;5098157;28;20055;-65
2023/10/10 06:03:40;;;;;;;;;;;;;;;12.97;100.00;101778.88;5078043;28;20027;-65
2023/10/10 06:06:06;;;;;;;31.20;25.67;;;;;;;12.81;100.00;101767.34;5086728;28;19946;-65
2023/10/10 06:08:31;;;;;;;34.10;26.95;;;;;;;12.78;100.00;101764.88;5077159;28;20027;-65
2023/10/10 06:10:57;;;;;;;30.08;26.85;;;;;;;12.79;100.00;101771.91;5093319;28;20024;-65
2023/10/10 06:13:23;;;;;;;31.77;26.02;;;;;;;12.87;100.00;101775.00;5074375;28;20474;-65
2023/10/10 06:15:50;;;;;;;30.33;24.67;;;;;;;12.78;100.00;101768.38;5075323;28;20038;-65
2023/10/10 06:18:17;;;;;;;27.13;13.82;;;;;;;12.88;100.00;101769.59;5083950;28;20066;-64
2023/10/10 06:20:44;;;;;;;29.42;26.23;;;;;;;12.66;100.00;101761.09;5084588;28;20510;-64
2023/10/10 06:23:17;;;;;;;32.92;25.23;;;;;;;12.73;100.00;101773.13;5084403;28;20043;-64
2023/10/10 06:25:45;;;;;;;32.30;24.50;;;;;;;12.80;100.00;101771.84;5074891;28;20118;-65
2023/10/10 06:28:57;;;;;;;31.70;23.85;;;;;;;12.73;100.00;101770.47;5079728;28;20462;-64
2023/10/10 06:30:59;;;;;;;30.90;25.00;;;;;;;12.79;100.00;101769.25;5088904;28;20044;-65
2023/10/10 06:33:28;;;;;;;31.08;23.77;;;;;;;12.76;100.00;101767.59;5084096;28;20086;-65
2023/10/10 06:36:32;;;;;;;30.58;23.15;;;;;;;12.79;100.00;101763.91;5084340;28;20043;-65
2023/10/10 06:41:36;;;;;;;29.47;23.67;;;;;;;12.79;100.00;101769.25;5097500;28;20029;-64
2023/10/10 06:44:04;;;;;;;25.98;23.17;;;;;;;12.78;100.00;101767.53;5092767;28;20273;-64
2023/10/10 06:46:32;;;;;;;26.60;14.60;;;;;;;12.90;100.00;101762.34;5074186;28;20023;-64
2023/10/10 06:49:06;;;;;;;19.15;13.70;;;;;;;12.94;100.00;101766.56;5080308;28;20036;-64
2023/10/10 06:51:39;;;;;;;26.98;13.10;;;;;;;12.90;100.00;101757.00;5072825;28;20040;-65
2023/10/10 06:54:08;;;;;;;26.73;23.83;;;;;;;12.78;100.00;101760.38;5096825;28;20031;-63
2023/10/10 06:56:53;;;;;;;25.25;22.55;;;;;;;12.86;100.00;101759.94;5094644;28;20112;-64
2023/10/10 06:59:26;;;;;;;25.95;23.23;;;;;;;12.83;100.00;101760.97;5100607;28;20037;-65
2023/10/10 07:02:00;;;;;;;29.25;22.50;;;;;;;12.96;100.00;101761.97;5093777;28;20052;-65
2023/10/10 07:04:27;;;;;;;30.95;23.98;;;;;;;12.84;100.00;101760.03;5076157;28;20084;-64
2023/10/10 07:06:55;;;;;;;23.77;12.88;;;;;;;13.05;100.00;101767.72;5072584;28;20027;-65
2023/10/10 07:09:29;;;;;;;26.85;22.35;;;;;;;12.98;100.00;101763.72;5091459;28;20020;-65
2023/10/10 07:11:56;;;;;;;29.20;23.60;;;;;;;12.91;100.00;101763.19;5112698;28;20107;-65
2023/10/10 07:14:25;;;;;;;25.80;23.08;;;;;;;12.98;100.00;101756.56;5098424;28;20449;-64
2023/10/10 07:16:56;;;;;;;29.23;24.33;;;;;;;12.98;100.00;101756.56;5086210;28;20479;-65
2023/10/10 07:19:30;;;;;;;19.45;12.45;;;;;;;13.13;100.00;101750.31;5109386;28;20114;-64
2023/10/10 07:21:56;;;;;;;18.23;11.70;;;;;;;13.09;100.00;101740.78;5092345;28;20043;-65
2023/10/10 07:24:28;;;;;;;31.10;23.65;;;;;;;13.03;100.00;101741.13;5092090;28;20036;-65
2023/10/10 07:27:10;;;;;;;29.27;23.80;;;;;;;13.05;100.00;101741.03;5099569;28;20027;-65
2023/10/10 07:32:16;;;;;;;27.02;24.10;;;;;;;13.16;100.00;101752.78;5097449;28;20059;-65
2023/10/10 07:34:49;;;;;;;27.63;22.20;;;;;;;13.23;100.00;101755.09;5089108;28;20028;-65
2023/10/10 07:37:15;;;;;;;23.10;14.18;;;;;;;13.31;100.00;101751.06;5099267;28;20073;-65
2023/10/10 07:42:34;;;;;;;28.60;24.17;;;;;;;13.31;100.00;101753.72;5066454;28;20047;-65
2023/10/10 07:45:13;;;;;;;28.90;24.23;;;;;;;13.35;100.00;101751.72;5070707;28;20099;-65
2023/10/10 07:50:26;;;;;;;27.85;23.45;;;;;;;13.42;100.00;101738.88;5111926;28;20078;-65
2023/10/10 07:52:52;;;;;;;26.42;23.35;;;;;;;13.45;100.00;101742.22;5109319;28;20028;-65
2023/10/10 07:55:18;;;;;;;27.30;23.00;;;;;;;13.49;100.00;101742.88;5092970;28;20047;-65
2023/10/10 07:57:55;;;;;;;28.00;23.58;;;;;;;13.50;100.00;101737.44;5112025;28;20023;-65
2023/10/10 08:00:35;;;;;;;29.08;23.88;;;;;;;13.53;100.00;101742.59;5106086;28;20549;-65
2023/10/10 08:03:00;;;;;;;;;;;;;;;13.71;100.00;101745.09;5097988;28;20027;-65
2023/10/10 08:05:29;;;;;;;26.10;21.83;;;;;;;13.72;100.00;101749.50;5106810;28;19918;-65
2023/10/10 08:07:57;;;;;;;23.73;12.13;;;;;;;13.81;100.00;101752.44;5093670;28;20109;-66
2023/10/10 08:10:38;;;;;;;28.65;23.33;;;;;;;13.74;100.00;101742.25;5092158;28;20035;-65
2023/10/10 08:13:10;;;;;;;29.30;22.23;;;;;;;13.70;100.00;101712.13;5110459;28;20039;-66
2023/10/10 08:15:51;;;;;;;26.35;21.85;;;;;;;13.97;100.00;101748.81;5103143;28;20039;-65
2023/10/10 08:18:39;;;;;;;26.35;21.25;;;;;;;14.04;100.00;101747.47;5105937;28;20085;-65
2023/10/10 08:23:31;;;;;;;29.45;22.08;;;;;;;14.23;100.00;101752.50;5112112;28;20027;-65
2023/10/10 08:25:57;;;;;;;26.33;21.17;;;;;;;14.29;100.00;101758.34;5111260;28;20051;-66
2023/10/10 08:28:23;;;;;;;25.27;20.55;;;;;;;14.32;100.00;101751.91;5115185;28;20066;-65
2023/10/10 08:30:52;;;;;;;24.17;21.10;;;;;;;14.31;100.00;101747.53;5114990;28;20543;-65
2023/10/10 08:33:18;;;;;;;25.05;20.05;;;;;;;14.35;100.00;101749.03;5115661;28;20028;-65
2023/10/10 08:35:44;;;;;;;28.20;20.95;;;;;;;14.43;100.00;101749.41;5115902;28;20024;-65
2023/10/10 08:38:19;;;;;;;32.70;21.23;;;;;;;14.48;100.00;101752.66;5115747;28;20055;-66
2023/10/10 08:40:57;;;;;;;27.48;20.95;;;;;;;14.56;100.00;101754.88;5114810;28;20385;-66
2023/10/10 08:43:28;;;;;;;24.88;19.92;;;;;;;14.64;100.00;101760.56;5115951;28;20027;-66
2023/10/10 08:45:56;;;;;;;24.80;19.08;;;;;;;14.64;100.00;101759.72;5113693;28;20102;-65
2023/10/10 08:48:26;;;;;;;24.98;19.05;;;;;;;14.66;100.00;101752.44;5103645;28;20032;-65
2023/10/10 08:50:54;;;;;;;24.17;18.98;;;;;;;14.68;100.00;101756.75;5088929;28;20027;-65
2023/10/10 08:53:24;;;;;;;23.13;18.27;;;;;;;14.74;100.00;101763.50;5095858;28;20035;-65
2023/10/10 08:55:56;;;;;;;23.35;18.52;;;;;;;14.79;100.00;101758.69;5094751;28;20105;-65
2023/10/10 08:58:22;;;;;;;23.95;18.92;;;;;;;14.89;100.00;101759.81;5095110;28;20034;-66
2023/10/10 09:00:49;;;;;;;23.85;17.95;;;;;;;14.94;99.44;101764.84;5110604;28;20019;-65
2023/10/10 09:03:14;;;;;;;24.48;17.17;;;;;;;14.97;97.99;101767.31;5115346;28;20478;-66
2023/10/10 09:05:40;;;;;;;21.30;16.77;;;;;;;15.02;96.80;101758.97;5115452;28;20019;-66
2023/10/10 09:08:14;;;;;;;23.10;17.23;;;;;;;15.12;97.21;101757.41;5114978;28;20394;-65
2023/10/10 09:10:40;;;;;;;21.35;16.73;;;;;;;15.19;96.35;101748.00;5096678;28;20027;-66
2023/10/10 09:13:13;;;;;;;23.52;17.15;;;;;;;15.38;96.21;101763.66;5114933;28;20031;-65
2023/10/10 09:15:54;;;;;;;21.67;17.20;;;;;;;15.56;95.33;101764.22;5096054;28;20028;-66
2023/10/10 09:18:23;;;;;;;25.15;16.25;;;;;;;15.56;93.61;101759.72;5088477;28;20383;-66
2023/10/10 09:20:49;;;;;;;20.92;16.30;;;;;;;15.66;94.13;101754.56;5091475;28;20028;-66
2023/10/10 09:23:25;;;;;;;19.17;16.13;;;;;;;15.71;92.53;101770.38;5088649;28;20027;-66
2023/10/10 09:28:55;;;;;;;19.55;15.30;;;;;;;15.84;91.00;101752.44;5095090;28;20035;-66
2023/10/10 09:31:26;;;;;;;20.83;15.85;;;;;;;15.93;89.83;101756.31;5089881;28;20418;-66
2023/10/10 09:33:55;;;;;;;18.75;15.32;;;;;;;15.96;90.12;101754.25;5064891;28;20038;-66
2023/10/10 09:36:26;;;;;;;20.73;15.98;;;;;;;16.02;89.45;101747.59;5101215;28;20441;-66
2023/10/10 09:39:08;;;;;;;26.45;15.48;;;;;;;16.13;88.38;101756.59;5097256;28;20028;-66
2023/10/10 09:49:51;;;;;;;21.23;14.55;;;;;;;16.55;87.88;101761.63;5090506;28;20487;-66
2023/10/10 09:57:58;;;;;;;15.68;13.77;;;;;;;16.96;83.55;101768.47;5114482;28;20039;-66
2023/10/10 10:00:32;;;;;;;17.95;14.82;;;;;;;17.19;82.93;101772.97;5113977;28;20043;-66
2023/10/10 10:03:00;;;;;;;18.35;14.70;;;;;;;17.31;83.15;101765.78;5114408;28;20034;-66
2023/10/10 10:05:28;;;;;;;17.73;13.93;;;;;;;17.33;81.85;101765.69;5114071;28;20015;-65
2023/10/10 10:08:12;;;;;;;22.60;14.57;;;;;;;17.32;81.59;101764.81;5088748;28;20030;-66
2023/10/10 10:10:52;;;;;;;15.68;13.25;;;;;;;17.58;80.70;101762.78;5079633;28;20028;-66
2023/10/10 10:13:28;;;;;;;18.60;14.77;;;;;;;17.75;78.78;101752.53;5088902;28;20056;-66
2023/10/10 10:16:00;;;;;;;14.85;13.05;;;;;;;17.80;80.54;101766.53;5086179;28;20048;-66
2023/10/10 10:18:29;;;;;;;19.58;14.90;;;;;;;17.98;78.15;101758.81;5093414;28;20032;-66
2023/10/10 10:23:33;;;;;;;19.50;13.90;;;;;;;18.38;77.92;101749.25;5092563;28;20044;-66
2023/10/10 10:26:11;;;;;;;18.10;13.88;;;;;;;18.59;75.95;101752.00;5080212;28;20064;-65
2023/10/10 10:28:41;;;;;;;19.00;14.55;;;;;;;18.87;74.80;101749.72;5095106;28;20038;-66
2023/10/10 10:31:16;;;;;;;;;;;;;;;19.19;75.54;101748.84;5082211;28;20482;-66
2023/10/10 10:34:05;;;;;;;19.60;13.63;;;;;;;19.41;73.81;101742.47;5083869;28;19920;-66
2023/10/10 10:36:45;;;;;;;18.02;14.20;;;;;;;19.72;72.01;101746.09;5081722;28;20024;-66
2023/10/10 10:39:23;;;;;;;20.67;13.20;;;;;;;20.15;70.71;101753.97;5098565;28;20115;-66
2023/10/10 10:41:55;;;;;;;17.15;12.50;;;;;;;20.38;67.89;101743.78;5078658;28;20473;-66
2023/10/10 10:47:45;;;;;;;20.33;12.77;;;;;;;21.06;67.58;101746.59;5080433;28;20439;-66
2023/10/10 10:50:28;;;;;;;18.10;12.25;;;;;;;21.42;65.20;101743.28;5082184;28;20035;-66
2023/10/10 10:53:08;;;;;;;18.60;11.65;;;;;;;21.70;62.11;101749.63;5075936;28;20020;-66
2023/10/10 10:55:39;;;;;;;19.95;11.43;;;;;;;22.28;61.25;101743.13;5074035;28;20522;-66
2023/10/10 10:58:20;;;;;;;18.48;11.95;;;;;;;22.47;59.62;101742.16;5102523;28;20038;-66
2023/10/10 11:03:34;;;;;;;15.90;10.63;;;;;;;23.03;57.48;101739.19;5112924;28;20035;-67
2023/10/10 11:06:01;;;;;;;15.05;11.27;;;;;;;23.54;56.66;101734.81;5113113;28;20080;-66
2023/10/10 11:16:59;;;;;;;14.25;10.02;;;;;;;24.41;52.53;101726.56;5112774;28;20050;-66
2023/10/10 11:21:57;;;;;;;17.13;9.75;;;;;;;25.34;51.83;101718.19;5112848;28;20134;-67
2023/10/10 11:24:29;;;;;;;15.50;10.95;;;;;;;25.50;48.45;101703.66;5112265;28;20031;-67
2023/10/10 11:29:50;;;;;;;15.43;10.43;;;;;;;26.22;48.23;101709.06;5112605;28;20480;-67
2023/10/10 11:32:24;;;;;;;17.02;10.60;;;;;;;26.04;47.19;101706.59;5112373;28;20015;-67
2023/10/10 11:34:57;;;;;;;16.27;10.48;;;;;;;26.56;45.70;101702.38;5112229;28;20038;-66
2023/10/10 11:37:26;;;;;;;14.82;10.25;;;;;;;26.76;46.13;101691.84;5093833;28;20557;-67
2023/10/10 11:40:19;;;;;;;14.68;8.68;;;;;;;27.42;46.21;101694.88;5111908;28;20023;-67
2023/10/10 11:42:48;;;;;;;15.75;9.10;;;;;;;27.51;44.78;101699.19;5112457;28;20015;-66
2023/10/10 11:45:18;;;;;;;14.43;10.57;;;;;;;27.36;42.70;101694.56;5093765;28;20035;-66
2023/10/10 11:47:47;;;;;;;13.80;9.38;;;;;;;27.48;42.92;101692.22;5106273;28;20016;-67
2023/10/10 11:50:17;;;;;;;17.80;9.68;;;;;;;27.78;42.74;101686.75;5091733;28;20028;-67
2023/10/10 11:52:56;;;;;;;14.35;9.77;;;;;;;28.16;43.58;101678.44;5091962;28;20027;-66
2023/10/10 11:55:28;;;;;;;14.40;9.93;;;;;;;28.05;42.55;101675.13;5073178;28;20384;-66
2023/10/10 11:58:06;;;;;;;18.48;10.48;;;;;;;28.03;41.91;101670.88;5095872;28;20028;-66
2023/10/10 12:00:42;;;;;;;15.30;9.52;;;;;;;28.58;40.46;101674.91;5112094;28;20023;-67
2023/10/10 12:03:09;;;;;;;15.68;9.48;;;;;;;28.91;39.95;101671.63;5111580;28;20109;-67
2023/10/10 12:08:05;;;;;;;15.85;9.32;;;;;;;29.25;38.90;101676.34;5111867;28;20530;-67
2023/10/10 12:10:47;;;;;;;15.27;9.38;;;;;;;29.22;38.54;101660.31;5094320;28;20158;-67
2023/10/10 12:15:57;;;;;;;15.93;8.75;;;;;;;29.43;37.49;101664.88;5111851;28;20546;-67
2023/10/10 12:18:30;;;;;;;12.73;9.27;;;;;;;29.68;37.86;101661.66;5111600;28;20038;-67
2023/10/10 12:21:01;;;;;;;12.50;8.38;;;;;;;30.01;37.10;101659.91;5111883;28;20177;-67
2023/10/10 12:23:27;;;;;;;14.50;8.55;;;;;;;30.38;36.98;101652.22;5093996;28;20111;-67
2023/10/10 12:25:54;;;;;;;16.25;8.32;;;;;;;30.55;35.69;101655.41;5093253;28;20023;-67
2023/10/10 12:28:20;;;;;;;12.90;8.32;;;;;;;30.60;36.00;101649.31;5111517;28;20106;-67
2023/10/10 12:30:46;;;;;;;12.95;8.00;;;;;;;30.74;36.29;101640.03;5111552;28;20034;-67
2023/10/10 12:33:12;;;;;;;10.23;7.70;;;;;;;31.21;34.34;101641.69;5111652;28;20032;-67
2023/10/10 12:35:47;;;;;;;11.80;7.80;;;;;;;31.14;35.58;101640.84;5093401;28;20020;-67
2023/10/10 12:38:20;;;;;;;13.60;7.13;;;;;;;31.89;33.11;101630.28;5111446;28;20027;-66
2023/10/10 12:40:53;;;;;;;16.63;7.82;;;;;;;32.46;33.70;101635.09;5111195;28;20019;-67
2023/10/10 12:43:25;;;;;;;12.90;7.20;;;;;;;32.45;30.23;101636.16;5111587;28;20026;-67
2023/10/10 12:45:51;;;;;;;11.90;7.88;;;;;;;32.57;30.43;101629.69;5093127;28;20020;-66
2023/10/10 12:48:20;;;;;;;15.73;8.00;;;;;;;32.46;31.17;101624.91;5101296;28;20080;-67
2023/10/10 12:50:47;;;;;;;11.32;6.95;;;;;;;32.97;31.85;101621.09;5073235;28;20467;-67
2023/10/10 12:53:15;;;;;;;13.27;7.25;;;;;;;33.42;30.62;101625.53;5091322;28;20429;-67
2023/10/10 12:58:30;;;;;;;12.55;6.97;;;;;;;33.43;29.39;101624.44;5107257;28;20517;-67
2023/10/10 13:00:57;;;;;;;13.30;6.55;;;;;;;33.48;28.52;101617.16;5092869;28;20036;-66
2023/10/10 13:03:28;;;;;;;12.13;6.78;;;;;;;33.05;29.60;101619.13;5111669;28;20028;-67
2023/10/10 13:05:58;;;;;;;11.52;7.03;;;;;;;33.41;28.77;101612.78;5093445;28;20020;-67
2023/10/10 13:11:17;;;;;;;10.45;6.80;;;;;;;33.94;28.18;101612.13;5111042;28;20406;-67
2023/10/10 13:13:56;;;;;;;9.23;6.13;;;;;;;33.81;28.23;101612.34;5111566;28;20038;-67
2023/10/10 13:16:24;;;;;;;12.23;6.15;;;;;;;34.23;27.09;101606.88;5096713;28;20038;-66
2023/10/10 13:18:51;;;;;;;11.45;6.50;;;;;;;34.06;27.03;101604.78;5095496;28;20489;-67
2023/10/10 13:21:19;;;;;;;12.85;6.40;;;;;;;33.61;27.29;101609.81;5115099;28;20038;-67
2023/10/10 13:23:49;;;;;;;14.10;6.80;;;;;;;32.90;28.34;101612.03;5096805;28;20027;-67
2023/10/10 13:26:18;;;;;;;14.63;6.15;;;;;;;32.11;29.25;101607.94;5096190;28;20027;-67
2023/10/10 13:28:46;;;;;;;14.02;5.95;;;;;;;31.18;30.26;101611.88;5096057;28;20111;-64
2023/10/10 13:31:19;;;;;;;12.43;6.07;;;;;;;30.62;33.38;101605.97;5056202;28;20047;-64
2023/10/10 13:33:45;;;;;;;13.55;5.95;;;;;;;30.82;32.54;101604.09;5073102;28;20033;-64
2023/10/10 13:36:17;;;;;;;10.90;5.82;;;;;;;30.11;34.38;101608.22;5074096;28;20383;-64
2023/10/10 13:38:48;;;;;;;12.15;6.65;;;;;;;29.58;33.68;101607.16;5072938;28;20025;-64
2023/10/10 13:41:16;;;;;;;9.95;6.03;;;;;;;29.82;33.15;101612.13;5108350;28;20032;-64
2023/10/10 13:43:44;;;;;;;13.05;5.80;;;;;;;30.48;33.12;101600.50;5114382;28;20189;-64
2023/10/10 13:46:11;;;;;;;14.35;6.03;;;;;;;30.85;31.92;101603.69;5114037;28;20016;-64
2023/10/10 13:48:37;;;;;;;11.30;6.00;;;;;;;30.28;33.13;101591.41;5083413;28;20034;-64
2023/10/10 13:51:09;;;;;;;13.13;5.78;;;;;;;30.08;32.73;101586.66;5093947;28;20106;-64
2023/10/10 13:53:35;;;;;;;12.68;6.38;;;;;;;29.87;33.11;101595.06;5094271;28;20036;-64
2023/10/10 13:56:03;;;;;;;10.18;6.05;;;;;;;29.69;33.34;101595.63;5093407;28;20096;-64
2023/10/10 13:58:29;;;;;;;9.50;5.70;;;;;;;29.00;34.47;101585.50;5095104;28;20068;-64
2023/10/10 14:00:55;;;;;;;11.20;5.78;;;;;;;28.21;36.52;101589.25;5114267;28;20072;-64
2023/10/10 14:03:35;;;;;;;12.95;6.10;;;;;;;27.42;38.00;101577.38;5114205;28;20571;-64
2023/10/10 14:06:04;;;;;;;14.52;6.03;;;;;;;27.28;38.00;101571.72;5114226;28;20032;-64
2023/10/10 14:08:30;;;;;;;8.00;5.75;;;;;;;27.20;37.64;101580.00;5114513;28;20120;-64
2023/10/10 14:11:00;;;;;;;12.43;5.57;;;;;;;27.10;37.87;101580.25;5095342;28;20019;-64
2023/10/10 14:13:27;;;;;;;13.02;6.40;;;;;;;26.54;40.79;101578.94;5113915;28;20020;-64
2023/10/10 14:15:57;;;;;;;12.65;6.95;;;;;;;26.57;38.61;101579.41;5095481;28;20019;-64
2023/10/10 14:18:49;;;;;;;10.93;6.47;;;;;;;26.61;37.63;101578.00;5095756;28;20054;-66
2023/10/10 14:21:26;;;;;;;12.40;7.00;;;;;;;26.14;38.21;101580.91;5113849;28;20027;-66
2023/10/10 14:24:04;;;;;;;12.85;6.68;;;;;;;25.85;38.38;101565.25;5095797;28;20129;-66
2023/10/10 14:26:34;;;;;;;15.00;6.32;;;;;;;25.60;39.00;101560.78;5113358;28;20050;-66
2023/10/10 14:29:05;;;;;;;10.25;6.30;;;;;;;25.51;39.90;101563.72;5113970;28;20394;-66
2023/10/10 14:31:31;;;;;;;10.90;6.20;;;;;;;25.33;41.28;101559.38;5114043;28;20020;-66